createdAt,value
2018-08-06T00:01:15.100Z,1.00
2018-08-06T00:06:18.397Z,1.23
2018-08-06T00:11:21.700Z,1.03
2018-08-06T00:16:25.043Z,1.00
2018-08-06T00:21:28.324Z,1.13
2018-08-06T00:26:31.587Z,1.00
2018-08-06T00:31:34.911Z,0.93
2018-08-06T00:36:38.424Z,1.00
2018-08-06T00:41:41.711Z,1.30
2018-08-06T00:46:44.984Z,1.00
2018-08-06T00:51:48.256Z,1.20
2018-08-06T00:56:51.553Z,1.23
2018-08-06T01:01:54.847Z,1.13
2018-08-06T01:06:57.846Z,1.13
2018-08-06T01:12:01.128Z,1.00
2018-08-06T01:17:04.404Z,1.30
2018-08-06T01:22:08.043Z,1.50
2018-08-06T01:27:11.342Z,1.40
2018-08-06T01:32:14.676Z,1.33
2018-08-06T01:37:18.047Z,1.20
2018-08-06T01:42:21.380Z,1.70
2018-08-06T01:47:24.687Z,1.40
2018-08-06T01:52:28.059Z,1.70
2018-08-06T01:57:31.366Z,1.50
2018-08-06T02:02:34.753Z,1.43
2018-08-06T02:07:38.687Z,1.33
2018-08-06T02:12:42.579Z,1.40
2018-08-06T02:17:45.945Z,1.67
2018-08-06T02:22:49.291Z,1.67
2018-08-06T02:27:52.578Z,1.40
2018-08-06T02:32:55.919Z,1.57
2018-08-06T02:37:59.350Z,2.20
2018-08-06T02:43:02.592Z,1.60
2018-08-06T02:48:06.078Z,1.87
2018-08-06T02:53:09.412Z,1.57
2018-08-06T02:58:12.679Z,1.60
2018-08-06T03:03:15.950Z,1.60
2018-08-06T03:08:20.231Z,1.50
2018-08-06T03:13:23.499Z,1.47
2018-08-06T03:18:26.767Z,1.63
2018-08-06T03:23:30.055Z,1.87
2018-08-06T03:28:33.573Z,2.17
2018-08-06T03:33:36.872Z,1.73
2018-08-06T03:38:40.168Z,2.00
2018-08-06T03:43:43.456Z,2.20
2018-08-06T03:48:46.767Z,1.77
2018-08-06T03:53:50.056Z,1.80
2018-08-06T03:58:53.647Z,2.03
2018-08-06T04:03:56.986Z,2.27
2018-08-06T04:09:00.253Z,2.40
2018-08-06T04:14:03.552Z,2.23
2018-08-06T04:19:07.442Z,2.27
2018-08-06T04:24:10.752Z,1.70
2018-08-06T04:29:14.044Z,1.90
2018-08-06T04:34:17.375Z,2.13
2018-08-06T04:39:20.634Z,2.20
2018-08-06T04:44:23.883Z,2.10
2018-08-06T04:49:27.124Z,2.00
2018-08-06T04:54:30.771Z,1.93
2018-08-06T04:59:34.117Z,1.70
2018-08-06T05:04:37.384Z,1.83
2018-08-06T05:09:45.254Z,2.03
2018-08-06T05:14:48.511Z,1.50
2018-08-06T05:19:52.007Z,1.93
2018-08-06T05:24:55.490Z,2.30
2018-08-06T05:29:59.014Z,1.90
2018-08-06T05:35:02.374Z,2.07
2018-08-06T05:40:06.706Z,1.77
2018-08-06T05:45:10.971Z,1.60
2018-08-06T05:50:14.451Z,1.70
2018-08-06T05:55:17.973Z,1.60
2018-08-06T06:00:21.356Z,1.73
2018-08-06T06:05:24.650Z,1.77
2018-08-06T06:10:28.123Z,1.47
2018-08-06T06:15:31.365Z,1.73
2018-08-06T06:20:34.700Z,1.63
2018-08-06T06:25:38.145Z,1.70
2018-08-06T06:30:41.389Z,1.60
2018-08-06T06:35:44.632Z,1.60
2018-08-06T06:40:48.014Z,1.30
2018-08-06T06:45:51.268Z,1.70
2018-08-06T06:50:54.760Z,1.47
2018-08-06T06:55:58.105Z,1.50
2018-08-06T07:01:01.442Z,1.40
2018-08-06T07:06:04.770Z,1.30
2018-08-06T07:11:11.576Z,1.50
2018-08-06T07:16:14.919Z,1.53
2018-08-06T07:21:18.274Z,1.33
2018-08-06T07:26:21.668Z,1.70
2018-08-06T07:31:24.964Z,1.50
2018-08-06T07:36:28.203Z,1.30
2018-08-06T07:41:31.468Z,1.83
2018-08-06T07:46:35.078Z,1.47
2018-08-06T07:51:38.326Z,1.57
2018-08-06T07:56:41.608Z,1.30
2018-08-06T08:01:44.863Z,1.30
2018-08-06T08:06:48.119Z,1.70
2018-08-06T08:11:51.462Z,1.30
2018-08-06T08:16:54.743Z,1.37
2018-08-06T08:21:57.995Z,1.40
2018-08-06T08:27:01.305Z,1.57
2018-08-06T08:32:04.723Z,1.43
2018-08-06T08:37:07.985Z,1.57
2018-08-06T08:42:11.253Z,1.10
2018-08-06T08:47:14.814Z,1.40
2018-08-06T08:52:18.113Z,1.20
2018-08-06T08:57:21.359Z,1.80
2018-08-06T09:02:24.621Z,1.50
2018-08-06T09:07:27.963Z,1.60
2018-08-06T09:12:31.278Z,1.83
2018-08-06T09:17:34.575Z,1.30
2018-08-06T09:22:38.259Z,1.37
2018-08-06T09:27:43.108Z,1.57
2018-08-06T09:32:48.649Z,1.53
2018-08-06T09:37:51.943Z,1.47
2018-08-06T09:42:55.265Z,1.50
2018-08-06T09:47:58.529Z,1.70
2018-08-06T09:53:01.803Z,1.40
2018-08-06T09:58:05.099Z,1.60
2018-08-06T10:03:08.450Z,1.53
2018-08-06T10:08:12.704Z,1.80
2018-08-06T10:13:16.060Z,1.50
2018-08-06T10:18:19.165Z,1.77
2018-08-06T10:23:22.502Z,1.70
2018-08-06T10:28:25.804Z,1.90
2018-08-06T10:33:29.051Z,2.07
2018-08-06T10:38:32.351Z,1.80
2018-08-06T10:43:35.638Z,2.23
2018-08-06T10:48:38.925Z,1.93
2018-08-06T10:53:42.208Z,1.77
2018-08-06T10:58:45.465Z,2.00
2018-08-06T11:03:48.914Z,1.90
2018-08-06T11:08:52.295Z,2.20
2018-08-06T11:13:55.489Z,2.07
2018-08-06T11:18:58.771Z,2.23
2018-08-06T11:24:02.062Z,2.27
2018-08-06T11:29:05.351Z,2.00
2018-08-06T11:34:08.605Z,2.07
2018-08-06T11:39:12.487Z,2.00
2018-08-06T11:44:15.774Z,2.50
2018-08-06T11:49:19.037Z,2.10
2018-08-06T11:54:22.339Z,2.00
2018-08-06T11:59:25.629Z,1.50
2018-08-06T12:04:29.708Z,2.00
2018-08-06T12:09:33.015Z,2.47
2018-08-06T12:14:36.282Z,2.13
2018-08-06T12:19:39.554Z,2.10
2018-08-06T12:24:42.820Z,2.03
2018-08-06T12:29:46.070Z,2.10
2018-08-06T12:34:49.334Z,2.10
2018-08-06T12:39:52.606Z,1.97
2018-08-06T12:44:55.903Z,1.97
2018-08-06T12:49:59.194Z,2.33
2018-08-06T12:55:02.647Z,2.10
2018-08-06T13:00:11.371Z,2.10
2018-08-06T13:05:14.834Z,2.23
2018-08-06T13:10:18.129Z,2.00
2018-08-06T13:15:21.398Z,2.33
2018-08-06T13:20:24.701Z,2.63
2018-08-06T13:25:28.048Z,2.33
2018-08-06T13:30:31.758Z,2.53
2018-08-06T13:35:35.178Z,2.67
2018-08-06T13:40:38.444Z,2.37
2018-08-06T13:45:41.858Z,2.40
2018-08-06T13:50:45.249Z,3.00
2018-08-06T13:55:48.586Z,2.50
2018-08-06T14:00:51.740Z,2.07
2018-08-06T14:05:55.069Z,2.50
2018-08-06T14:10:58.327Z,2.13
2018-08-06T14:16:01.649Z,2.33
2018-08-06T14:21:04.906Z,2.33
2018-08-06T14:26:08.226Z,2.57
2018-08-06T14:31:11.598Z,2.00
2018-08-06T14:36:14.921Z,1.90
2018-08-06T14:41:18.225Z,2.23
2018-08-06T14:46:21.580Z,2.30
2018-08-06T14:51:24.852Z,2.40
2018-08-06T14:56:28.150Z,2.10
2018-08-06T15:01:31.496Z,2.00
2018-08-06T15:06:34.766Z,2.57
2018-08-06T15:11:38.027Z,2.60
2018-08-06T15:16:41.571Z,2.47
2018-08-06T15:21:44.858Z,2.37
2018-08-06T15:26:48.114Z,2.10
2018-08-06T15:31:51.431Z,2.50
2018-08-06T15:36:54.678Z,2.13
2018-08-06T15:41:57.998Z,2.20
2018-08-06T15:47:01.374Z,2.10
2018-08-06T15:52:04.663Z,1.93
2018-08-06T15:57:08.170Z,2.13
2018-08-06T16:02:11.475Z,2.10
2018-08-06T16:07:14.754Z,2.57
2018-08-06T16:12:18.046Z,2.37
2018-08-06T16:17:21.307Z,2.20
2018-08-06T16:22:24.544Z,2.03
2018-08-06T16:27:27.835Z,2.50
2018-08-06T16:32:31.132Z,4.53
2018-08-06T16:37:34.601Z,2.30
2018-08-06T16:42:37.846Z,1.77
2018-08-06T16:47:41.263Z,2.20
2018-08-06T16:52:44.790Z,2.20
2018-08-06T16:57:47.972Z,2.30
2018-08-06T17:02:52.065Z,2.20
2018-08-06T17:07:55.328Z,2.23
2018-08-06T17:12:58.607Z,2.27
2018-08-06T17:18:02.069Z,2.33
2018-08-06T17:23:05.483Z,2.17
2018-08-06T17:28:08.835Z,2.40
2018-08-06T17:33:12.157Z,2.30
2018-08-06T17:38:15.424Z,2.17
2018-08-06T17:43:18.701Z,2.17
2018-08-06T17:48:21.714Z,2.40
2018-08-06T17:53:25.183Z,2.43
2018-08-06T17:58:28.560Z,2.50
2018-08-06T18:03:31.857Z,2.20
2018-08-06T18:08:35.123Z,2.97
2018-08-06T18:13:38.431Z,3.80
2018-08-06T18:18:41.716Z,2.20
2018-08-06T18:23:45.032Z,2.17
2018-08-06T18:28:48.343Z,2.27
2018-08-06T18:33:51.619Z,2.37
2018-08-06T18:38:54.905Z,2.47
2018-08-06T18:43:58.198Z,2.60
2018-08-06T18:49:01.467Z,2.47
2018-08-06T18:54:04.763Z,2.53
2018-08-06T18:59:08.138Z,2.20
2018-08-06T19:04:11.460Z,2.40
2018-08-06T19:09:18.070Z,2.30
2018-08-06T19:14:23.922Z,2.17
2018-08-06T19:19:28.487Z,2.47
2018-08-06T19:24:37.193Z,2.80
2018-08-06T19:29:40.446Z,2.23
2018-08-06T19:34:43.762Z,2.60
2018-08-06T19:39:47.012Z,2.40
2018-08-06T19:44:50.360Z,2.50
2018-08-06T19:49:59.077Z,2.43
2018-08-06T19:55:07.783Z,2.40
2018-08-06T20:00:12.374Z,2.40
2018-08-06T20:05:15.713Z,2.87
2018-08-06T20:10:19.019Z,2.70
2018-08-06T20:15:22.361Z,2.80
2018-08-06T20:20:25.754Z,2.60
2018-08-06T20:25:29.184Z,2.30
2018-08-06T20:30:32.647Z,2.33
2018-08-06T20:35:36.096Z,2.60
2018-08-06T20:40:39.351Z,3.10
2018-08-06T20:45:42.647Z,2.47
2018-08-06T20:50:45.965Z,2.77
2018-08-06T20:55:50.007Z,2.70
2018-08-06T21:00:53.325Z,2.80
2018-08-06T21:05:56.680Z,2.67
2018-08-06T21:10:59.951Z,3.00
2018-08-06T21:16:03.352Z,3.03
2018-08-06T21:21:06.650Z,3.03
2018-08-06T21:26:09.914Z,2.77
2018-08-06T21:31:13.157Z,3.13
2018-08-06T21:36:16.441Z,2.63
2018-08-06T21:41:19.847Z,2.63
2018-08-06T21:46:23.138Z,2.80
2018-08-06T21:51:26.462Z,2.83
2018-08-06T21:56:29.862Z,2.63
2018-08-06T22:01:33.223Z,3.00
2018-08-06T22:06:36.483Z,2.63
2018-08-06T22:11:39.931Z,2.50
2018-08-06T22:16:43.271Z,2.83
2018-08-06T22:21:46.656Z,2.63
2018-08-06T22:26:49.933Z,2.73
2018-08-06T22:31:53.335Z,2.70
2018-08-06T22:36:56.747Z,2.80
2018-08-06T22:41:59.996Z,2.30
2018-08-06T22:47:03.399Z,2.53
2018-08-06T22:52:06.958Z,2.47
2018-08-06T22:57:10.288Z,2.80
2018-08-06T23:02:13.685Z,2.33
2018-08-06T23:07:16.960Z,2.73
2018-08-06T23:12:20.278Z,2.50
2018-08-06T23:17:23.583Z,2.50
2018-08-06T23:22:26.936Z,2.70
2018-08-06T23:27:30.187Z,2.30
2018-08-06T23:32:33.487Z,2.90
2018-08-06T23:37:36.835Z,2.93
2018-08-06T23:42:41.030Z,2.90
2018-08-06T23:47:44.629Z,2.53
2018-08-06T23:52:47.991Z,2.97
2018-08-06T23:57:51.460Z,2.70
